Sellers, South Carolina
Current Conditions -  °F | °C
As of 4:15 PM on Friday 31 Oct 2014 (Local Time) from KMAO Reporting Station
Scattered Clouds Scattered Clouds  
Wind Chill: 64°   Ceiling: Unl
Heat Index: 64°   Visibility: 10mi
Dew Point: 41°   Wind: 3mph
Humidity: 42%   Direction: 10°N
Pressure: 29.79"   Gusts: NA
Location:  34.28°N, 79.47°W
Report Text: KMAO 312015Z AUTO 01003KT 10SM SCT050 SCT060 18/05 A2979 RMK AO2
Loading
Personal Weather Stations






























Interactive Weather Map
Tropical Storm Tracking
New forecast layout! Learn more

10-Day Weather Forecast

Advertisements
Track Severe Weather on mobile